Mario im Turnier von 01.08.2018 bis 01.09.2018

Marios Ergebnis

Rang 519.
Turnierpunkte 784
Gespielt : Gewonnen 89 : 44
Schneider 8
Bilanz 496:461

Marios Bummerln

Zeit Gegner Ergebnis Ende
21:54:38 am 30.08.2018 Tricia 7:3 normal
21:38:15 am 30.08.2018 Heike Jantscher 7:5 normal
21:32:02 am 30.08.2018 Katze 2:8 normal
21:25:17 am 30.08.2018 Speedy 8:5 normal
21:21:42 am 30.08.2018 James76 1:7 normal
21:16:32 am 30.08.2018 Michael Schwarz 7:0 normal
21:12:06 am 30.08.2018 glueck 7:0 normal
22:34:29 am 29.08.2018 Erwin Deweis 7:2 normal
22:27:02 am 29.08.2018 jo 8:0 normal
22:20:46 am 29.08.2018 D2403 7:5 normal
20:55:12 am 27.08.2018 pecan 7:5 normal
20:50:20 am 27.08.2018 tomica 4:8 normal
20:39:06 am 27.08.2018 Manu 6:8 normal
20:33:17 am 27.08.2018 MIX 8:4 normal
20:25:48 am 27.08.2018 Karla 8:3 normal
22:55:58 am 26.08.2018 toni 7:1 normal
22:51:06 am 26.08.2018 Marli 7:3 normal
22:33:33 am 26.08.2018 Franz 007 6:7 normal
22:29:23 am 26.08.2018 Bernd Unterweger 9:1 normal
22:10:05 am 26.08.2018 miata5 2:7 normal
22:05:32 am 26.08.2018 SM-N9005 3:7 normal
22:01:12 am 26.08.2018 Elwood Mcrs 9:2 normal
21:57:52 am 26.08.2018 Frosch 1:9 normal
21:49:22 am 26.08.2018 Biginger 8:6 normal
21:44:50 am 26.08.2018 Professor 2:8 normal
21:38:40 am 26.08.2018 JNoNameSchnopser 8:0 normal
14:49:52 am 26.08.2018 Stefano 7:2 normal
14:46:40 am 26.08.2018 anfänger 7:0 normal
14:41:50 am 26.08.2018 Horst wugonigg 7:3 normal
14:36:04 am 26.08.2018 martschi 8:4 normal
14:33:18 am 26.08.2018 Rottweiler 3:7 normal
15:43:44 am 25.08.2018 Christian Steinacher 8:0 normal
15:31:31 am 25.08.2018 Reinhard Z 6:7 normal
15:27:18 am 25.08.2018 Dominik 7:1 normal
15:17:56 am 25.08.2018 afavago 6:7 normal
15:10:13 am 25.08.2018 Harald 1994 4:8 normal
15:03:41 am 25.08.2018 DELETED 7:1 normal
14:58:22 am 25.08.2018 Ivo pivo 4:7 normal
14:54:07 am 25.08.2018 Elena Neißl 8:3 normal
12:59:13 am 25.08.2018 Christian Zieher 2:8 normal
12:56:00 am 25.08.2018 Gampi Chamoishunter 7:4 normal
12:47:17 am 25.08.2018 Wolf 6:7 normal
12:43:09 am 25.08.2018 Sonne 3:7 normal
12:32:29 am 25.08.2018 *Chris2601 7:5 autocontnormal
11:55:14 am 25.08.2018 MotoG3 7:3 normal
07:14:01 am 25.08.2018 glatzi 7:5 normal
07:08:01 am 25.08.2018 #Bernd# 7:5 normal
07:02:54 am 25.08.2018 Fastback25 1:7 normal
06:56:02 am 25.08.2018 Josef 4:7 normal
22:23:31 am 24.08.2018 Mary 9:2 normal
22:17:10 am 24.08.2018 Marianne Hobel 2:9 normal
22:11:16 am 24.08.2018 Bulma 8:3 normal
22:25:23 am 23.08.2018 Bobi 5:7 normal
22:22:25 am 23.08.2018 Da ane 8:4 normal
21:14:56 am 23.08.2018 *Sebastians iPhone 2:9 autocontnormal
21:07:54 am 23.08.2018 DELETED 5:7 normal
21:01:46 am 23.08.2018 servus tv 5:7 normal
22:46:19 am 19.08.2018 Andy0224 6:8 normal
22:43:34 am 19.08.2018 Rosa Brunner 0:7 normal
22:23:48 am 19.08.2018 Danny Nitsch 5:7 normal
22:17:20 am 19.08.2018 Bärli 6:7 normal
22:10:42 am 19.08.2018 q1dobro 1 8:2 normal
22:06:31 am 19.08.2018 Fritz 1:7 normal
22:00:54 am 19.08.2018 Konrad55 3:8 normal
21:55:11 am 19.08.2018 Adelaide Bosch 8:3 normal
21:50:27 am 19.08.2018 Josef Zeilinger 8:0 normal
19:38:44 am 19.08.2018 papa_joe 2:7 normal
19:30:52 am 19.08.2018 matl 6:7 normal
19:27:04 am 19.08.2018 WAS-LX1 4:9 normal
19:22:42 am 19.08.2018 Christian Sieghartner 7:0 normal
19:18:57 am 19.08.2018 anton 7:6 normal
19:14:36 am 19.08.2018 Hr. Werner 7:1 normal
19:09:33 am 19.08.2018 Wolfi 5:7 normal
19:01:05 am 19.08.2018 reni 2:7 normal
18:54:28 am 19.08.2018 Manfred Zulechner 3:7 normal
18:48:52 am 19.08.2018 basti65 5:8 normal
18:45:30 am 19.08.2018 Helga 2:7 normal
18:41:08 am 19.08.2018 zOnK 88 5:8 normal
17:41:48 am 19.08.2018 Marga Kowatsch 6:8 normal
17:34:18 am 19.08.2018 HUAWEI VTR-L09 6:8 normal
17:29:38 am 19.08.2018 HUAWEI VNS-L31 7:6 normal
17:23:04 am 19.08.2018 Lass die Spiele begi... 6:8 normal
17:20:45 am 19.08.2018 elo 2:7 normal
16:12:02 am 19.08.2018 Leonhard Melcher 7:1 normal
16:03:10 am 19.08.2018 Roman Unger 6:8 normal
15:41:35 am 19.08.2018 Martin 7:3 normal
15:35:41 am 19.08.2018 mj2313 7:5 normal
15:30:25 am 19.08.2018 Mario78 7:6 normal
15:16:28 am 19.08.2018 banana joe 2:8 normal